Morehead City, NC

10:53 PM EDT on September 22, 2014 (GMT -0400)
Piney Island | Change Station
CLOSE
Current Station
Airport
Location: Piney Island,
Elevation: 16 ft
Nearby Weather Stations
Active Advisory: Beach Hazard Statement

Elev 16 ft 35.02 °N, 76.46 °W | Updated 57 minutes ago

Mostly Cloudy
Mostly Cloudy
75 °F
Feels Like 75 °F
N
8
Wind Variable Wind from NE

Today
High -- | Low -- °F
--% Chance of Precip.
Yesterday
High -- | Low -- °F
Precip. -- in
6:55 AM 7:03 PM
Waning Crescent, 1% visible
Pressure 30.11 in
Visibility 10.0 miles
Clouds Clear
Dew Point 63 °F
Humidity 66%
Rainfall 0.00 in
Snow Depth Not available.
UV 0 out of 12
Pollen 7.00 out of 12
Air Quality Not available.
Flu Activity Not available.
METAR KNBT 230156Z AUTO 05007KT 10SM CLR 24/17 A3010 RMK AO2 SLP196 T02390172 PNO

More Conditions Fewer Conditions

Pressure 30.11 in
Visibility 10.0 miles
Clouds Clear
Dew Point 63 °F
Humidity 66%
Rainfall 0.00 in
Snow Depth Not available.
UV 0 out of 12
Pollen 7.00 out of 12
Air Quality Not available.
Flu Activity Not available.
METAR KNBT 230156Z AUTO 05007KT 10SM CLR 24/17 A3010 RMK AO2 SLP196 T02390172 PNO

More Conditions Fewer Conditions

10-Day Weather Forecast

Almanac

Astronomy

Sep. 22, 2014 Rise Set
Actual Time 6:55 AM EDT 7:03 PM EDT
Civil Twilight 6:29 AM EDT 7:28 PM EDT
Nautical Twilight 6:00 AM EDT 7:58 PM EDT
Astronomical Twilight 5:30 AM EDT 8:28 PM EDT
Moon 5:24 AM EDT (9/22) 6:08 PM EDT (9/22)
Length of Visible Light 12h 59m
Length of Day
12h 08m
Tomorrow will be 2m 10s shorter.
Waning Crescent, 1% of the Moon is Illuminated
Today
Waning Crescent
Sep 24
New
Oct 1
First Quarter
Oct 8
Full
Oct 15
Last Quarter

Today's Extremes

State Highs State Lows

Community

WunderPhotos

Upload Photos

1,755,587 photos uploaded!

Nearby

Snow Depth

Station Depth Elevation
No new snow has been reported.

Earthquake Activity

City Distance Mag. Time & Date
No recent earthquake activity has been reported nearby.
Minimum magnitude displayed is 2.5.

Coastal Water Temperatures

Place Temperature
Beaufort, NC 75.9 °F
Johnny Mercer Pier, Wrightsville Beach, NC 80.1 °F
Hatteras, NC 73.9 °F
Oregon Inlet Marina, NC 75.9 °F

Nearby Weather Stations